Time;durP1;ratioP1;P1;durP2;ratioP2;P2;SDS_P1;SDS_P2;PMS_P1;PMS_P2;Temp;Humidity;BMP_temperature;BMP_pressure;BME280_temperature;BME280_humidity;BME280_pressure;Samples;Min_cycle;Max_cycle;Signal;HPM_P1;HPM_P2
2023/05/12 00:02:05;;;;;;;;;;;13.40;99.90;;;;;;5072201;28;20297;-88
2023/05/12 00:04:30;;;;;;;;;;;13.40;99.90;;;;;;5072369;28;19950;-87
2023/05/12 00:06:56;;;;;;;;;;;13.40;99.90;;;;;;5071813;28;19932;-88
2023/05/12 00:09:21;;;;;;;;;;;13.40;99.90;;;;;;5070668;28;20420;-88
2023/05/12 00:11:48;;;;;;;;;;;13.40;99.90;;;;;;5051318;28;20368;-87
2023/05/12 00:14:13;;;;;;;;;;;13.40;99.90;;;;;;5062690;28;19924;-87
2023/05/12 00:16:39;;;;;;;;;;;13.40;99.90;;;;;;5070841;28;19935;-87
2023/05/12 00:19:05;;;;;;;;;;;13.40;99.90;;;;;;5052919;28;19943;-87
2023/05/12 00:21:31;;;;;;;;;;;13.40;99.90;;;;;;5054119;28;19928;-87
2023/05/12 00:23:56;;;;;;;;;;;13.50;99.90;;;;;;5061629;28;19934;-87
2023/05/12 00:26:22;;;;;;;;;;;13.40;99.90;;;;;;5073357;28;19924;-87
2023/05/12 00:28:47;;;;;;;;;;;13.40;99.90;;;;;;5068394;28;19924;-87
2023/05/12 00:31:13;;;;;;;;;;;13.50;99.90;;;;;;5049305;28;19932;-87
2023/05/12 00:33:39;;;;;;;;;;;13.50;99.90;;;;;;5058970;28;19928;-87
2023/05/12 00:36:05;;;;;;;;;;;13.50;99.90;;;;;;5072381;28;19986;-87
2023/05/12 00:38:30;;;;;;;;;;;13.50;99.90;;;;;;5068261;28;19924;-86
2023/05/12 00:40:56;;;;;;;;;;;13.50;99.90;;;;;;5066782;28;19929;-86
2023/05/12 00:43:21;;;;;;;;;;;13.50;99.90;;;;;;5066683;28;19970;-86
2023/05/12 00:45:47;;;;;;;;;;;13.50;99.90;;;;;;5070057;28;19933;-86
2023/05/12 00:48:12;;;;;;;;;;;13.50;99.90;;;;;;5058197;28;19971;-87
2023/05/12 00:50:38;;;;;;;;;;;13.50;99.90;;;;;;5060892;28;20376;-86
2023/05/12 00:53:05;;;;;;;;;;;13.50;99.90;;;;;;5069880;28;19990;-86
2023/05/12 00:55:30;;;;;;;;;;;13.50;99.90;;;;;;5070744;28;20695;-87
2023/05/12 00:57:56;;;;;;;;;;;13.50;99.90;;;;;;5071581;28;19928;-86
2023/05/12 01:00:21;;;;;;;;;;;13.50;99.90;;;;;;5069467;28;20385;-86
2023/05/12 01:02:47;;;;;;;;;;;13.50;99.90;;;;;;5068816;28;19932;-86
2023/05/12 01:05:13;;;;;;;;;;;13.50;99.90;;;;;;5055083;28;19950;-86
2023/05/12 01:07:39;;;;;;;;;;;13.60;99.90;;;;;;5069470;28;20133;-86
2023/05/12 01:10:15;;;;;;;;;;;13.50;99.90;;;;;;5070823;28;19932;-87
2023/05/12 01:12:41;;;;;;;;;;;13.60;99.90;;;;;;5054120;28;19924;-86
2023/05/12 01:15:07;;;;;;;;;;;13.60;99.90;;;;;;5051283;28;19935;-85
2023/05/12 01:17:34;;;;;;;;;;;13.50;99.90;;;;;;5071887;28;19928;-86
2023/05/12 01:20:01;;;;;;;;;;;13.60;99.90;;;;;;5070298;28;19931;-86
2023/05/12 01:22:30;;;;;;;;;;;13.60;99.90;;;;;;5047277;28;19950;-86
2023/05/12 01:25:03;;;;;;;;;;;13.60;99.90;;;;;;5065905;28;19924;-87
2023/05/12 01:27:29;;;;;;;;;;;13.60;99.90;;;;;;5071343;28;20296;-87
2023/05/12 01:29:55;;;;;;;;;;;13.60;99.90;;;;;;5071828;28;19931;-86
2023/05/12 01:32:21;;;;;;;;;;;13.60;99.90;;;;;;5065396;28;20400;-87
2023/05/12 01:34:47;;;;;;;;;;;13.60;99.90;;;;;;5060496;28;19978;-87
2023/05/12 01:37:13;;;;;;;;;;;13.60;99.90;;;;;;5050397;28;20696;-87
2023/05/12 01:39:38;;;;;;;;;;;13.60;99.90;;;;;;5062372;28;19925;-87
2023/05/12 01:42:04;;;;;;;;;;;13.60;99.90;;;;;;5064581;28;19975;-87
2023/05/12 01:44:30;;;;;;;;;;;13.60;99.90;;;;;;5059511;28;19925;-87
2023/05/12 01:46:55;;;;;;;;;;;13.60;99.90;;;;;;5070635;28;20127;-85
2023/05/12 01:49:21;;;;;;;;;;;13.60;99.90;;;;;;5069525;28;19970;-87
2023/05/12 01:51:47;;;;;;;;;;;13.60;99.90;;;;;;5069787;28;19998;-86
2023/05/12 01:54:12;;;;;;;;;;;13.60;99.90;;;;;;5070080;28;19939;-87
2023/05/12 01:56:38;;;;;;;;;;;13.70;99.90;;;;;;5051817;28;19990;-87
2023/05/12 01:59:03;;;;;;;;;;;13.60;99.90;;;;;;5070544;28;19975;-87
2023/05/12 02:01:31;;;;;;;;;;;13.60;99.90;;;;;;5070791;28;19925;-87
2023/05/12 02:03:57;;;;;;;;;;;13.70;99.90;;;;;;5067884;28;20435;-85
2023/05/12 02:06:22;;;;;;;;;;;13.70;99.90;;;;;;5067854;28;19924;-87
2023/05/12 02:08:48;;;;;;;;;;;13.60;99.90;;;;;;5070756;28;20004;-87
2023/05/12 02:11:14;;;;;;;;;;;13.70;99.90;;;;;;5065430;28;19936;-85
2023/05/12 02:13:39;;;;;;;;;;;13.70;99.90;;;;;;5062443;28;19982;-85
2023/05/12 02:16:05;;;;;;;;;;;13.70;99.90;;;;;;5044691;28;20380;-85
2023/05/12 02:18:31;;;;;;;;;;;13.70;99.90;;;;;;5063099;28;19925;-85
2023/05/12 02:20:56;;;;;;;;;;;13.70;99.90;;;;;;5066242;28;19932;-85
2023/05/12 02:23:22;;;;;;;;;;;13.70;99.90;;;;;;5068171;28;20392;-85
2023/05/12 02:25:48;;;;;;;;;;;13.70;99.90;;;;;;5069534;28;19924;-86
2023/05/12 02:28:13;;;;;;;;;;;13.70;99.90;;;;;;5064360;28;20285;-86
2023/05/12 02:30:43;;;;;;;;;;;13.80;99.90;;;;;;5048282;28;20011;-86
2023/05/12 02:33:09;;;;;;;;;;;13.80;99.90;;;;;;5067273;28;20295;-86
2023/05/12 02:35:34;;;;;;;;;;;13.80;99.90;;;;;;5063435;28;20376;-85
2023/05/12 02:38:00;;;;;;;;;;;13.90;99.90;;;;;;5070157;28;20265;-85
2023/05/12 02:40:25;;;;;;;;;;;13.90;99.90;;;;;;5066734;28;20400;-86
2023/05/12 02:42:51;;;;;;;;;;;13.90;99.90;;;;;;5034039;28;19947;-86
2023/05/12 02:45:17;;;;;;;;;;;13.90;99.90;;;;;;5071653;28;19925;-86
2023/05/12 02:47:42;;;;;;;;;;;13.90;99.90;;;;;;5064418;28;20300;-86
2023/05/12 02:50:08;;;;;;;;;;;14.00;99.90;;;;;;5071287;28;19932;-86
2023/05/12 02:52:34;;;;;;;;;;;13.90;99.90;;;;;;5073429;28;20057;-86
2023/05/12 02:54:59;;;;;;;;;;;13.90;99.90;;;;;;5069389;28;19939;-86
2023/05/12 02:57:30;;;;;;;;;;;13.90;99.90;;;;;;5071373;28;19924;-86
2023/05/12 02:59:56;;;;;;;;;;;13.90;99.90;;;;;;5071596;28;19933;-84
2023/05/12 03:02:21;;;;;;;;;;;13.90;99.90;;;;;;5052650;28;20168;-84
2023/05/12 03:04:47;;;;;;;;;;;13.80;99.90;;;;;;5070280;28;21688;-85
2023/05/12 03:07:13;;;;;;;;;;;13.80;99.90;;;;;;5069709;28;19925;-84
2023/05/12 03:09:38;;;;;;;;;;;13.90;99.90;;;;;;5073038;28;19928;-85
2023/05/12 03:12:04;;;;;;;;;;;13.80;99.90;;;;;;5066567;28;19924;-84
2023/05/12 03:14:29;;;;;;;;;;;13.80;99.90;;;;;;5059838;28;19925;-85
2023/05/12 03:16:55;;;;;;;;;;;13.80;99.90;;;;;;5070084;28;19928;-85
2023/05/12 03:19:21;;;;;;;;;;;13.80;99.90;;;;;;5070659;28;19985;-85
2023/05/12 03:21:46;;;;;;;;;;;13.90;99.90;;;;;;5049143;28;19928;-85
2023/05/12 03:24:12;;;;;;;;;;;13.80;99.90;;;;;;5073001;28;19931;-84
2023/05/12 03:26:38;;;;;;;;;;;13.90;99.90;;;;;;5054166;28;19924;-83
2023/05/12 03:29:03;;;;;;;;;;;13.90;99.90;;;;;;5054647;28;19978;-83
2023/05/12 03:31:29;;;;;;;;;;;13.90;99.90;;;;;;5047375;28;19924;-83
2023/05/12 03:33:54;;;;;;;;;;;13.90;99.90;;;;;;5055788;28;19972;-84
2023/05/12 03:36:20;;;;;;;;;;;14.00;99.90;;;;;;5071681;28;19924;-83
2023/05/12 03:38:46;;;;;;;;;;;13.90;99.90;;;;;;5052181;28;19934;-84
2023/05/12 03:41:11;;;;;;;;;;;13.90;99.90;;;;;;5071586;28;19924;-83
2023/05/12 03:43:37;;;;;;;;;;;14.00;99.90;;;;;;5048301;28;19925;-83
2023/05/12 03:46:02;;;;;;;;;;;13.90;99.90;;;;;;5070958;28;19971;-84
2023/05/12 03:48:28;;;;;;;;;;;13.90;99.90;;;;;;5071199;28;19932;-83
2023/05/12 03:50:53;;;;;;;;;;;13.90;99.90;;;;;;5072761;28;19968;-83
2023/05/12 03:53:19;;;;;;;;;;;13.90;99.90;;;;;;5071008;28;19931;-83
2023/05/12 03:55:45;;;;;;;;;;;13.90;99.90;;;;;;5066097;28;19935;-83
2023/05/12 03:58:10;;;;;;;;;;;13.90;99.90;;;;;;5054577;28;19925;-84
2023/05/12 04:00:36;;;;;;;;;;;13.90;99.90;;;;;;5069847;28;19929;-83
2023/05/12 04:03:01;;;;;;;;;;;13.90;99.90;;;;;;5070282;28;20399;-85
2023/05/12 04:05:27;;;;;;;;;;;13.90;99.90;;;;;;5065053;28;19947;-83
2023/05/12 04:07:52;;;;;;;;;;;13.90;99.90;;;;;;5068052;28;19925;-83
2023/05/12 04:10:18;;;;;;;;;;;14.00;99.90;;;;;;5063898;28;19976;-83
2023/05/12 04:12:44;;;;;;;;;;;14.30;99.90;;;;;;5030018;28;19920;-83
2023/05/12 04:15:09;;;;;;;;;;;14.00;99.90;;;;;;5054040;28;20015;-83
2023/05/12 04:17:35;;;;;;;;;;;14.00;99.90;;;;;;5041346;28;20265;-83
2023/05/12 04:20:01;;;;;;;;;;;14.00;99.90;;;;;;5055821;28;19927;-83
2023/05/12 04:22:26;;;;;;;;;;;14.00;99.90;;;;;;5072288;28;20040;-83
2023/05/12 04:24:52;;;;;;;;;;;14.00;99.90;;;;;;5073842;28;19927;-84
2023/05/12 04:27:17;;;;;;;;;;;14.10;99.90;;;;;;5038407;28;20458;-83
2023/05/12 04:29:43;;;;;;;;;;;14.10;99.90;;;;;;5061311;28;19932;-84
2023/05/12 04:32:08;;;;;;;;;;;14.10;99.90;;;;;;5072933;28;19979;-84
2023/05/12 04:34:34;;;;;;;;;;;14.10;99.90;;;;;;5072957;28;20276;-84
2023/05/12 04:37:00;;;;;;;;;;;14.10;99.90;;;;;;5067287;28;19932;-83
2023/05/12 04:39:26;;;;;;;;;;;14.20;99.90;;;;;;5064113;28;20408;-83
2023/05/12 04:41:52;;;;;;;;;;;14.20;99.90;;;;;;5066511;28;19924;-84
2023/05/12 04:44:17;;;;;;;;;;;14.10;99.90;;;;;;5054549;28;20039;-84
2023/05/12 04:46:43;;;;;;;;;;;14.20;99.90;;;;;;5070183;28;19961;-83
2023/05/12 04:49:09;;;;;;;;;;;14.20;99.90;;;;;;5072190;28;19924;-83
2023/05/12 04:51:40;;;;;;;;;;;14.20;99.90;;;;;;5072565;28;19928;-83
2023/05/12 04:54:08;;;;;;;;;;;14.20;99.90;;;;;;5067962;28;19952;-83
2023/05/12 04:56:34;;;;;;;;;;;14.20;99.90;;;;;;5062434;28;20027;-85
2023/05/12 04:58:59;;;;;;;;;;;14.30;99.90;;;;;;5064287;28;20008;-84
2023/05/12 05:01:25;;;;;;;;;;;14.30;99.90;;;;;;5067930;28;19931;-84
2023/05/12 05:03:51;;;;;;;;;;;14.30;99.90;;;;;;5071885;28;19924;-84
2023/05/12 05:06:16;;;;;;;;;;;14.30;99.90;;;;;;5069355;28;19928;-84
2023/05/12 05:08:42;;;;;;;;;;;14.30;99.90;;;;;;5070222;28;19924;-84
2023/05/12 05:11:07;;;;;;;;;;;14.40;99.90;;;;;;5067000;28;19932;-84
2023/05/12 05:13:33;;;;;;;;;;;14.40;99.90;;;;;;5047875;28;19935;-86
2023/05/12 05:15:58;;;;;;;;;;;14.30;99.90;;;;;;5046032;28;19924;-87
2023/05/12 05:18:24;;;;;;;;;;;14.40;99.90;;;;;;5060603;28;19932;-86
2023/05/12 05:20:50;;;;;;;;;;;14.40;99.90;;;;;;5069318;28;19977;-86
2023/05/12 05:23:15;;;;;;;;;;;14.40;99.90;;;;;;5068151;28;20024;-86
2023/05/12 05:25:41;;;;;;;;;;;14.40;99.90;;;;;;5066248;28;19954;-85
2023/05/12 05:28:06;;;;;;;;;;;14.40;99.90;;;;;;5067937;28;19935;-84
2023/05/12 05:30:32;;;;;;;;;;;14.40;99.90;;;;;;5062394;28;20029;-87
2023/05/12 05:32:58;;;;;;;;;;;14.40;99.90;;;;;;5058881;28;19925;-84
2023/05/12 05:35:23;;;;;;;;;;;14.50;99.90;;;;;;5048923;28;19924;-84
2023/05/12 05:37:52;;;;;;;;;;;14.50;99.90;;;;;;5053630;28;19971;-85
2023/05/12 05:40:18;;;;;;;;;;;14.50;99.90;;;;;;5054104;28;19924;-85
2023/05/12 05:42:43;;;;;;;;;;;14.50;99.90;;;;;;5030353;28;20400;-84
2023/05/12 05:45:09;;;;;;;;;;;14.60;99.90;;;;;;5041224;28;19925;-87
2023/05/12 05:47:36;;;;;;;;;;;14.60;99.90;;;;;;5043635;28;19935;-85
2023/05/12 05:50:02;;;;;;;;;;;14.60;99.90;;;;;;5053728;28;20445;-86
2023/05/12 05:52:28;;;;;;;;;;;14.70;99.90;;;;;;5053657;28;20387;-85
2023/05/12 05:54:53;;;;;;;;;;;14.60;99.90;;;;;;5055186;28;19924;-85
2023/05/12 05:57:20;;;;;;;;;;;14.70;99.90;;;;;;5054871;28;20417;-84
2023/05/12 05:59:45;;;;;;;;;;;14.70;99.90;;;;;;5057135;28;20000;-85
2023/05/12 06:02:11;;;;;;;;;;;14.70;99.90;;;;;;5056696;28;20369;-83
2023/05/12 06:04:37;;;;;;;;;;;14.70;99.90;;;;;;5074759;28;19924;-84
2023/05/12 06:07:02;;;;;;;;;;;14.70;99.90;;;;;;5073389;28;19925;-84
2023/05/12 06:09:28;;;;;;;;;;;14.70;99.90;;;;;;5072397;28;20397;-84
2023/05/12 06:11:53;;;;;;;;;;;14.70;99.90;;;;;;5073739;28;20367;-84
2023/05/12 06:14:19;;;;;;;;;;;14.80;96.80;;;;;;5056690;28;19924;-84
2023/05/12 06:16:44;;;;;;;;;;;14.90;96.30;;;;;;5040433;28;19932;-84
2023/05/12 06:19:11;;;;;;;;;;;14.90;99.90;;;;;;5053442;28;19936;-84
2023/05/12 06:21:36;;;;;;;;;;;15.00;99.90;;;;;;5070040;28;19932;-84
2023/05/12 06:24:02;;;;;;;;;;;15.00;92.20;;;;;;5054487;28;20373;-84
2023/05/12 06:26:28;;;;;;;;;;;14.90;63.80;;;;;;5073235;28;19928;-84
2023/05/12 06:28:53;;;;;;;;;;;15.00;78.90;;;;;;5043187;28;20520;-83
2023/05/12 06:31:19;;;;;;;;;;;15.00;63.30;;;;;;5074244;28;19924;-84
2023/05/12 06:33:44;;;;;;;;;;;15.00;75.40;;;;;;5055652;28;20399;-84
2023/05/12 06:36:11;;;;;;;;;;;14.90;56.80;;;;;;5075776;28;19967;-84
2023/05/12 06:38:36;;;;;;;;;;;15.00;53.70;;;;;;5073547;28;19974;-84
2023/05/12 06:41:02;;;;;;;;;;;15.00;51.90;;;;;;5070066;28;20381;-84
2023/05/12 06:43:28;;;;;;;;;;;15.00;42.50;;;;;;5071429;28;19932;-84
2023/05/12 06:45:55;;;;;;;;;;;15.00;33.70;;;;;;5068292;28;19971;-84
2023/05/12 06:48:22;;;;;;;;;;;15.10;55.80;;;;;;5071360;28;19924;-83
2023/05/12 06:50:47;;;;;;;;;;;15.00;44.40;;;;;;5072680;28;19928;-84
2023/05/12 06:53:13;;;;;;;;;;;15.00;40.60;;;;;;5054985;28;19924;-83
2023/05/12 06:55:39;;;;;;;;;;;15.00;33.60;;;;;;5072027;28;19935;-83
2023/05/12 06:58:04;;;;;;;;;;;15.00;33.30;;;;;;5057280;28;19924;-84
2023/05/12 07:00:30;;;;;;;;;;;15.00;31.30;;;;;;5038102;28;19936;-83
2023/05/12 07:02:56;;;;;;;;;;;15.00;50.10;;;;;;5033489;28;19999;-84
2023/05/12 07:05:21;;;;;;;;;;;14.80;93.80;;;;;;5051903;28;19929;-85
2023/05/12 07:07:47;;;;;;;;;;;14.90;99.90;;;;;;5063150;28;20019;-84
2023/05/12 07:10:13;;;;;;;;;;;14.80;99.90;;;;;;5054858;28;20408;-84
2023/05/12 07:12:38;;;;;;;;;;;14.90;99.90;;;;;;5071782;28;20007;-84
2023/05/12 07:15:04;;;;;;;;;;;14.90;99.90;;;;;;5043563;28;20277;-83
2023/05/12 07:17:30;;;;;;;;;;;14.90;99.90;;;;;;5068729;28;19997;-83
2023/05/12 07:19:55;;;;;;;;;;;14.90;99.90;;;;;;5041320;28;20011;-83
2023/05/12 07:22:22;;;;;;;;;;;14.80;99.90;;;;;;5056184;28;19925;-84
2023/05/12 07:24:48;;;;;;;;;;;14.90;99.90;;;;;;5053463;28;20394;-83
2023/05/12 07:27:13;;;;;;;;;;;14.90;99.90;;;;;;5054248;28;19932;-84
2023/05/12 07:29:39;;;;;;;;;;;15.00;99.90;;;;;;5068344;28;20278;-83
2023/05/12 07:32:05;;;;;;;;;;;15.00;99.90;;;;;;5073548;28;20376;-83
2023/05/12 07:34:33;;;;;;;;;;;15.20;99.90;;;;;;5073448;28;19924;-83
2023/05/12 07:37:01;;;;;;;;;;;15.30;99.90;;;;;;5074043;28;19931;-84
2023/05/12 07:39:27;;;;;;;;;;;15.40;99.90;;;;;;5072231;28;20011;-83
2023/05/12 07:41:54;;;;;;;;;;;15.60;99.90;;;;;;5055700;28;19928;-83
2023/05/12 07:44:19;;;;;;;;;;;15.60;94.80;;;;;;5059437;28;20363;-83
2023/05/12 07:46:45;;;;;;;;;;;15.80;66.40;;;;;;5072496;28;20008;-83
2023/05/12 07:49:11;;;;;;;;;;;15.90;47.40;;;;;;5071900;28;19924;-83
2023/05/12 07:51:38;;;;;;;;;;;16.10;14.90;;;;;;5072392;28;19935;-83
2023/05/12 07:54:03;;;;;;;;;;;16.20;1.00;;;;;;5072598;28;19925;-82
2023/05/12 07:56:29;;;;;;;;;;;16.30;1.00;;;;;;5072165;28;20392;-83
2023/05/12 07:58:55;;;;;;;;;;;16.50;1.00;;;;;;5072369;28;20384;-83
2023/05/12 08:01:20;;;;;;;;;;;16.80;1.00;;;;;;5070845;28;19929;-83
2023/05/12 08:03:46;;;;;;;;;;;17.10;1.00;;;;;;5070873;28;19937;-82
2023/05/12 08:06:11;;;;;;;;;;;17.30;1.00;;;;;;5070439;28;19931;-82
2023/05/12 08:08:37;;;;;;;;;;;17.50;1.00;;;;;;5069791;28;19974;-81
2023/05/12 08:11:02;;;;;;;;;;;17.60;1.00;;;;;;5071559;28;19924;-82
2023/05/12 08:13:28;;;;;;;;;;;17.70;99.90;;;;;;5071092;28;20021;-81
2023/05/12 08:15:53;;;;;;;;;;;17.80;99.90;;;;;;5059726;28;20036;-82
2023/05/12 08:18:19;;;;;;;;;;;17.90;99.90;;;;;;5053956;28;19931;-82
2023/05/12 08:20:46;;;;;;;;;;;17.90;99.90;;;;;;5070972;28;19963;-82
2023/05/12 08:23:12;;;;;;;;;;;18.10;99.90;;;;;;5070961;28;19980;-82
2023/05/12 08:25:39;;;;;;;;;;;18.20;99.90;;;;;;5070371;28;19928;-83
2023/05/12 08:28:05;;;;;;;;;;;18.50;99.90;;;;;;5036274;28;19931;-84
2023/05/12 08:30:30;;;;;;;;;;;18.60;99.90;;;;;;5040931;28;20357;-84
2023/05/12 08:32:56;;;;;;;;;;;18.80;99.90;;;;;;5070515;28;19932;-84
2023/05/12 08:35:25;;;;;;;;;;;19.00;99.90;;;;;;5072445;28;19985;-83
2023/05/12 08:37:51;;;;;;;;;;;19.10;99.90;;;;;;5064294;28;19921;-84
2023/05/12 08:40:19;;;;;;;;;;;19.30;99.90;;;;;;5069101;28;19968;-84
2023/05/12 08:42:58;;;;;;;;;;;19.50;99.90;;;;;;5060806;28;20288;-83
2023/05/12 08:45:23;;;;;;;;;;;19.80;99.90;;;;;;5057025;28;19960;-83
2023/05/12 08:47:50;;;;;;;;;;;20.00;99.90;;;;;;5070806;28;19971;-83
2023/05/12 08:50:16;;;;;;;;;;;20.30;99.90;;;;;;5055282;28;20019;-83
2023/05/12 08:52:42;;;;;;;;;;;20.40;99.90;;;;;;5068773;28;19924;-82
2023/05/12 08:55:08;;;;;;;;;;;20.40;99.90;;;;;;5059022;28;20045;-83
2023/05/12 08:57:34;;;;;;;;;;;20.40;99.90;;;;;;5061942;28;19928;-82
2023/05/12 09:00:01;;;;;;;;;;;20.50;99.90;;;;;;5051562;28;20288;-82
2023/05/12 09:02:27;;;;;;;;;;;20.60;99.90;;;;;;5036252;28;20019;-82
2023/05/12 09:04:56;;;;;;;;;;;20.80;99.90;;;;;;5068659;28;20011;-82
2023/05/12 09:07:25;;;;;;;;;;;21.30;99.90;;;;;;5070926;28;19924;-82
2023/05/12 09:09:53;;;;;;;;;;;21.70;99.90;;;;;;5071432;28;19928;-82
2023/05/12 09:12:20;;;;;;;;;;;22.10;99.90;;;;;;5067021;28;20365;-80
2023/05/12 09:14:50;;;;;;;;;;;22.30;99.90;;;;;;5071477;28;20142;-79
2023/05/12 09:17:15;;;;;;;;;;;22.50;99.90;;;;;;5069566;28;19932;-80
2023/05/12 09:19:41;;;;;;;;;;;22.90;99.90;;;;;;5069521;28;19924;-79
2023/05/12 09:22:13;;;;;;;;;;;23.10;99.90;;;;;;5052405;28;19928;-80
2023/05/12 09:24:39;;;;;;;;;;;23.40;99.90;;;;;;5069961;28;19924;-80
2023/05/12 09:27:05;;;;;;;;;;;23.90;99.90;;;;;;5067889;28;19929;-80
2023/05/12 09:29:32;;;;;;;;;;;24.10;99.90;;;;;;5065568;28;19931;-80
2023/05/12 09:31:58;;;;;;;;;;;24.50;99.10;;;;;;5068696;28;19925;-80
2023/05/12 09:34:37;;;;;;;;;;;24.90;99.20;;;;;;5070022;28;20300;-80
2023/05/12 09:37:04;;;;;;;;;;;25.20;81.60;;;;;;5022047;28;20285;-80
2023/05/12 09:39:30;;;;;;;;;;;25.60;87.50;;;;;;5068750;28;20462;-80
2023/05/12 09:41:55;;;;;;;;;;;25.60;65.30;;;;;;5071751;28;19990;-80
2023/05/12 09:44:22;;;;;;;;;;;25.70;64.00;;;;;;5053035;28;19930;-80
2023/05/12 09:46:47;;;;;;;;;;;26.00;73.60;;;;;;5053076;28;19924;-80
2023/05/12 09:49:20;;;;;;;;;;;25.40;75.90;;;;;;5029255;28;19935;-80
2023/05/12 09:51:50;;;;;;;;;;;26.80;26.20;;;;;;5057391;28;19951;-79
2023/05/12 09:54:23;;;;;;;;;;;27.30;24.50;;;;;;5068778;28;19931;-80
2023/05/12 09:56:48;;;;;;;;;;;27.50;29.00;;;;;;5064994;28;20329;-79
2023/05/12 09:59:14;;;;;;;;;;;27.20;8.60;;;;;;5063493;28;19931;-79
2023/05/12 10:01:40;;;;;;;;;;;27.00;13.10;;;;;;5070145;28;19931;-80
2023/05/12 10:04:07;;;;;;;;;;;26.80;13.30;;;;;;5053163;28;20011;-79
2023/05/12 10:06:36;;;;;;;;;;;26.50;8.90;;;;;;5052903;28;19931;-79
2023/05/12 10:09:14;;;;;;;;;;;26.80;1.00;;;;;;5067723;28;19925;-79
2023/05/12 10:11:40;;;;;;;;;;;27.40;7.20;;;;;;5060845;28;20337;-79
2023/05/12 10:14:08;;;;;;;;;;;27.30;1.00;;;;;;5048846;28;20015;-80
2023/05/12 10:16:34;;;;;;;;;;;28.00;3.00;;;;;;5046255;28;19924;-80
2023/05/12 10:19:00;;;;;;;;;;;29.30;2.60;;;;;;5041727;28;20330;-79
2023/05/12 10:21:26;;;;;;;;;;;30.40;1.00;;;;;;5052908;28;19983;-79
2023/05/12 10:23:53;;;;;;;;;;;31.30;1.00;;;;;;5070251;28;19978;-80
2023/05/12 10:26:19;;;;;;;;;;;32.00;1.00;;;;;;5038268;28;20013;-79
2023/05/12 10:28:45;;;;;;;;;;;31.90;1.00;;;;;;5069301;28;20385;-81
2023/05/12 10:31:11;;;;;;;;;;;32.40;1.00;;;;;;5065933;28;20035;-79
2023/05/12 10:33:37;;;;;;;;;;;32.50;1.00;;;;;;5058983;28;19932;-79
2023/05/12 10:36:03;;;;;;;;;;;33.00;1.00;;;;;;5064294;28;19934;-80
2023/05/12 10:38:36;;;;;;;;;;;33.60;1.00;;;;;;5052941;28;19946;-79
2023/05/12 10:41:03;;;;;;;;;;;33.80;1.00;;;;;;5071891;28;19976;-80
2023/05/12 10:43:37;;;;;;;;;;;34.00;1.00;;;;;;5055460;28;19925;-80
2023/05/12 10:46:06;;;;;;;;;;;34.40;1.00;;;;;;5055521;28;20016;-80
2023/05/12 10:48:32;;;;;;;;;;;34.30;1.00;;;;;;5055047;28;20305;-79
2023/05/12 10:51:05;;;;;;;;;;;33.30;1.00;;;;;;5037663;28;19932;-80
2023/05/12 10:53:34;;;;;;;;;;;33.50;1.00;;;;;;5071733;28;20007;-80
2023/05/12 10:56:02;;;;;;;;;;;33.50;1.00;;;;;;5073262;28;19924;-80
2023/05/12 10:58:28;;;;;;;;;;;34.00;1.00;;;;;;5075323;28;19924;-80
2023/05/12 11:00:53;;;;;;;;;;;33.80;1.00;;;;;;5074978;28;19924;-80
2023/05/12 11:03:22;;;;;;;;;;;32.90;1.00;;;;;;5074087;28;20014;-79
2023/05/12 11:06:07;;;;;;;;;;;32.00;1.00;;;;;;5073676;28;20017;-80
2023/05/12 11:08:35;;;;;;;;;;;31.80;1.00;;;;;;5069580;28;19925;-80
2023/05/12 11:11:01;;;;;;;;;;;32.10;1.00;;;;;;5067993;28;20391;-80
2023/05/12 11:13:27;;;;;;;;;;;31.60;1.00;;;;;;5063346;28;19966;-80
2023/05/12 11:15:53;;;;;;;;;;;31.80;1.00;;;;;;5065383;28;19925;-80
2023/05/12 11:18:19;;;;;;;;;;;31.60;1.00;;;;;;5063647;28;19981;-79
2023/05/12 11:20:45;;;;;;;;;;;31.80;1.00;;;;;;5062326;28;20070;-80
2023/05/12 11:23:11;;;;;;;;;;;31.60;1.00;;;;;;5043216;28;19928;-79
2023/05/12 11:25:36;;;;;;;;;;;32.20;1.00;;;;;;5063481;28;19928;-80
2023/05/12 11:28:02;;;;;;;;;;;33.10;1.00;;;;;;5046937;28;19924;-80
2023/05/12 11:30:28;;;;;;;;;;;33.50;1.00;;;;;;5045689;28;19925;-80
2023/05/12 11:33:00;;;;;;;;;;;33.90;1.00;;;;;;5061003;28;19925;-79
2023/05/12 11:35:29;;;;;;;;;;;34.60;1.00;;;;;;5064119;28;20268;-80
2023/05/12 11:37:54;;;;;;;;;;;35.00;1.00;;;;;;5044463;28;19933;-80
2023/05/12 11:40:21;;;;;;;;;;;35.10;1.00;;;;;;5064504;28;19932;-80
2023/05/12 11:42:47;;;;;;;;;;;35.30;1.00;;;;;;5064239;28;19999;-80
2023/05/12 11:45:23;;;;;;;;;;;35.50;1.00;;;;;;5063172;28;19966;-79
2023/05/12 11:47:49;;;;;;;;;;;35.60;1.00;;;;;;5062629;28;19932;-80
2023/05/12 11:50:24;;;;;;;;;;;35.80;1.00;;;;;;5066278;28;20353;-79
2023/05/12 11:52:50;;;;;;;;;;;36.00;1.00;;;;;;5060756;28;19928;-80
2023/05/12 11:55:23;;;;;;;;;;;35.80;1.00;;;;;;5062261;28;19932;-79
2023/05/12 11:57:59;;;;;;;;;;;35.60;1.00;;;;;;5064536;28;21484;-79
2023/05/12 12:00:26;;;;;;;;;;;36.00;1.00;;;;;;5066006;28;19924;-80
2023/05/12 12:02:51;;;;;;;;;;;35.80;1.00;;;;;;5064613;28;20407;-79
2023/05/12 12:05:17;;;;;;;;;;;35.80;1.00;;;;;;5062303;28;20019;-79
2023/05/12 12:07:43;;;;;;;;;;;35.70;1.00;;;;;;5063057;28;20377;-80
2023/05/12 12:10:10;;;;;;;;;;;35.70;1.00;;;;;;5063550;28;19931;-79
2023/05/12 12:12:36;;;;;;;;;;;34.90;1.00;;;;;;5063483;28;19924;-79
2023/05/12 12:15:01;;;;;;;;;;;33.80;1.00;;;;;;5060512;28;20407;-79
2023/05/12 12:17:30;;;;;;;;;;;33.00;1.00;;;;;;5062740;28;19981;-79
2023/05/12 12:19:56;;;;;;;;;;;31.50;1.00;;;;;;5062560;28;20293;-79
2023/05/12 12:22:22;;;;;;;;;;;31.00;1.00;;;;;;5061240;28;19929;-79
2023/05/12 12:24:47;;;;;;;;;;;30.20;1.00;;;;;;5061960;28;19995;-79
2023/05/12 12:27:13;;;;;;;;;;;29.50;1.00;;;;;;5064396;28;19977;-79
2023/05/12 12:29:39;;;;;;;;;;;28.90;1.00;;;;;;5064140;28;19977;-79
2023/05/12 12:32:04;;;;;;;;;;;28.40;1.00;;;;;;5062171;28;20081;-79
2023/05/12 12:34:30;;;;;;;;;;;27.80;1.00;;;;;;5063700;28;19932;-78
2023/05/12 12:36:56;;;;;;;;;;;27.60;1.00;;;;;;5043716;28;19932;-79
2023/05/12 12:39:22;;;;;;;;;;;27.50;1.00;;;;;;5065580;28;19925;-78
2023/05/12 12:41:48;;;;;;;;;;;27.30;1.00;;;;;;5061727;28;19920;-79
2023/05/12 12:44:13;;;;;;;;;;;27.10;1.00;;;;;;5053020;28;19977;-78
2023/05/12 12:46:39;;;;;;;;;;;26.90;1.00;;;;;;5029674;28;20300;-78
2023/05/12 12:49:06;;;;;;;;;;;26.90;1.00;;;;;;5052560;28;20335;-78
2023/05/12 12:51:32;;;;;;;;;;;26.80;1.00;;;;;;5063987;28;19970;-78
2023/05/12 12:53:58;;;;;;;;;;;26.70;1.00;;;;;;5068656;28;19977;-79
2023/05/12 12:56:24;;;;;;;;;;;26.60;1.00;;;;;;5049508;28;21891;-78
2023/05/12 12:58:50;;;;;;;;;;;26.40;1.00;;;;;;5046268;28;20438;-78
2023/05/12 13:01:16;;;;;;;;;;;26.40;1.00;;;;;;5068255;28;19931;-78
2023/05/12 13:03:42;;;;;;;;;;;26.30;1.00;;;;;;5070123;28;19931;-78
2023/05/12 13:06:08;;;;;;;;;;;26.20;1.00;;;;;;5032731;28;19921;-78
2023/05/12 13:08:33;;;;;;;;;;;26.20;1.00;;;;;;5070798;28;19971;-78
2023/05/12 13:10:59;;;;;;;;;;;26.20;1.00;;;;;;5069187;28;19993;-79
2023/05/12 13:13:25;;;;;;;;;;;26.20;1.00;;;;;;5058220;28;19968;-78
2023/05/12 13:15:51;;;;;;;;;;;26.20;1.00;;;;;;5068569;28;19924;-78
2023/05/12 13:18:17;;;;;;;;;;;26.30;1.00;;;;;;5070701;28;20345;-78
2023/05/12 13:20:43;;;;;;;;;;;26.30;1.00;;;;;;5068630;28;19975;-77
2023/05/12 13:23:09;;;;;;;;;;;26.40;1.00;;;;;;5067898;28;19926;-78
2023/05/12 13:25:34;;;;;;;;;;;26.40;1.00;;;;;;5070445;28;19924;-78
2023/05/12 13:28:00;;;;;;;;;;;26.30;1.00;;;;;;5070748;28;19959;-78
2023/05/12 13:30:26;;;;;;;;;;;26.30;1.00;;;;;;5052134;28;19981;-78
2023/05/12 13:32:51;;;;;;;;;;;26.20;1.00;;;;;;5071051;28;19924;-77
2023/05/12 13:35:17;;;;;;;;;;;26.00;1.00;;;;;;5069553;28;19929;-78
2023/05/12 13:37:42;;;;;;;;;;;26.00;1.00;;;;;;5070359;28;19924;-78
2023/05/12 13:40:08;;;;;;;;;;;26.10;1.00;;;;;;5069943;28;20371;-78
2023/05/12 13:42:34;;;;;;;;;;;26.20;1.00;;;;;;5071267;28;19924;-78
2023/05/12 13:45:00;;;;;;;;;;;26.20;1.00;;;;;;5070021;28;19932;-77
2023/05/12 13:47:26;;;;;;;;;;;26.00;1.00;;;;;;5052909;28;19928;-78
2023/05/12 13:49:52;;;;;;;;;;;25.80;1.00;;;;;;5070967;28;20303;-78
2023/05/12 13:52:17;;;;;;;;;;;25.60;1.00;;;;;;5068750;28;19924;-78
2023/05/12 13:54:43;;;;;;;;;;;25.50;1.00;;;;;;5072330;28;20327;-77
2023/05/12 13:57:08;;;;;;;;;;;25.70;1.00;;;;;;5070986;28;19924;-77
2023/05/12 13:59:34;;;;;;;;;;;26.00;1.00;;;;;;5070190;28;19978;-78
2023/05/12 14:02:00;;;;;;;;;;;26.20;1.00;;;;;;5043561;28;19936;-78
2023/05/12 14:04:25;;;;;;;;;;;26.20;1.00;;;;;;5064749;28;19924;-78
2023/05/12 14:06:51;;;;;;;;;;;26.10;1.00;;;;;;5048489;28;19978;-79
2023/05/12 14:09:17;;;;;;;;;;;26.00;1.00;;;;;;5052429;28;20330;-78
2023/05/12 14:11:43;;;;;;;;;;;25.70;1.00;;;;;;5064796;28;19925;-77
2023/05/12 14:14:08;;;;;;;;;;;25.40;1.00;;;;;;5050369;28;19936;-78
2023/05/12 14:16:34;;;;;;;;;;;25.40;1.00;;;;;;5073779;28;19925;-78